• Join FlightAware (Why Join?)
  • Login
  • US Flag 
09:15AM EST


 

Airport Tracker/Info


-or-


 

Live Flight TrackerFlight Track Log ✈ EJA951 ✈ 15-Sep-2013 ✈ KBFI - KMSO

Flight Track Log - Related Links

Times and Time Zones

All times are in EDT time to prevent confusion due to time zone crossing. See the EJA951 flight status page for this flight to view local times or setup timezone preferences in your user account.

Time Position Orientation Groundspeed Altitude Reporting Facility
EDT Latitude Longitude Course Direction KTS MPH feet Rate Location/Type
02:14PM 47.5117 -122.2878 147° Southeast 173 199 1,400  Level Seattle Center
02:14PM 47.4989 -122.2756 147° Southeast 187 215 2,000 2,040 Climbing Seattle Center
02:15PM 47.4697 -122.2136 125° Southeast 210 242 4,100 2,160 Climbing Seattle Center
02:16PM 47.4625 -122.1122 96° East 245 282 6,500 2,820 Climbing Seattle Center
02:17PM 47.4525 -121.9853 97° East 286 329 10,000 2,460 Climbing Seattle Center
02:18PM 47.4422 -121.8631 97° East 307 353 11,600 1,680 Climbing Seattle Center
02:19PM 47.4300 -121.7197 97° East 349 402 13,500 1,920 Climbing Seattle Center
02:20PM 47.4278 -121.5586 91° East 366 421 15,600 1,920 Climbing Seattle Center
02:21PM 47.4256 -121.4042 91° East 378 435 17,500 1,800 Climbing Seattle Center
02:23PM 47.4214 -121.2622 92° East 386 444 19,400 1,620 Climbing Seattle Center
02:24PM 47.4194 -121.1019 91° East 394 453 20,900 1,620 Climbing Seattle Center
02:25PM 47.4150 -120.9008 92° East 413 475 22,700 1,740 Climbing Seattle Center
02:26PM 47.4136 -120.7469 91° East 422 486 24,500 1,560 Climbing Seattle Center
02:27PM 47.4081 -120.5728 93° East 426 490 26,000 1,560 Climbing Seattle Center
02:28PM 47.4042 -120.3936 92° East 437 503 27,700 1,500 Climbing Seattle Center
02:29PM 47.4006 -120.2111 92° East 444 511 29,100 1,320 Climbing Seattle Center
02:30PM 47.3961 -119.9856 92° East 457 526 30,500 900 Climbing Seattle Center
02:31PM 47.3875 -119.7894 94° East 478 550 31,000 240 Climbing Seattle Center
02:32PM 47.3828 -119.5942 92° East 479 551 31,000  Level Seattle Center
02:33PM 47.3742 -119.3994 94° East 480 552 31,000  Level Seattle Center
02:34PM 47.3622 -119.2072 95° East 475 547 31,000  Level Seattle Center
02:35PM 47.3494 -119.0147 96° East 474 545 31,000  Level Seattle Center
02:36PM 47.3367 -118.8219 96° East 475 547 31,000  Level Seattle Center
02:37PM 47.3233 -118.6292 96° East 475 547 31,000  Level Seattle Center
02:38PM 47.3064 -118.3972 96° East 475 547 31,000  Level Seattle Center
02:39PM 47.2925 -118.2042 96° East 478 550 31,000  Level Seattle Center
02:40PM 47.2783 -118.0114 96° East 478 550 31,000  Level Seattle Center
02:41PM 47.2644 -117.8172 96° East 480 552 31,000  Level Seattle Center
02:42PM 47.2494 -117.6239 96° East 480 552 31,000  Level Seattle Center
02:43PM 47.2342 -117.4297 97° East 484 557 31,000  Level Seattle Center
02:44PM 47.2214 -117.2358 95° East 483 556 31,000  Level Seattle Center
02:45PM 47.2011 -117.0053 97° East 480 552 31,000 -300 Level Seattle Center
02:46PM 47.1869 -116.8111 96° East 483 556 30,400 -1,140 Descending Seattle Center
02:47PM 47.1686 -116.6167 98° East 485 558 28,800 -1,560 Descending Seattle Center
02:48PM 47.1525 -116.4300 97° East 471 542 27,300 -1,380 Descending Seattle Center
02:49PM 47.1356 -116.2489 98° East 454 522 26,000 -1,320 Descending Seattle Center
02:50PM 47.1206 -116.0758 97° East 436 502 24,700 -1,320 Descending Seattle Center
02:51PM 47.1042 -115.9078 98° East 421 484 23,400 -1,320 Descending Seattle Center
02:52PM 47.0872 -115.7342 98° East 429 494 22,000 -1,440 Descending Seattle Center
02:53PM 47.0675 -115.5203 98° East 437 503 20,400 -1,320 Descending Salt Lake Center
02:54PM 47.0542 -115.3447 96° East 436 502 19,400 -1,740 Descending Seattle Center
02:55PM 47.0350 -115.1731 99° East 432 497 17,000 -2,220 Descending Seattle Center
02:56PM 47.0178 -115.0053 99° East 425 489 14,900 -1,020 Descending Seattle Center
02:57PM 47.0006 -114.8478 99° East 414 476 15,000  Climbing Seattle Center
02:58PM 46.9856 -114.7039 99° East 392 451 15,000 -480 Level Seattle Center
02:59PM 46.9689 -114.5608 100° East 376 433 14,100 -1,500 Descending Seattle Center
03:00PM 46.9544 -114.4197 98° East 366 421 12,000 -2,220 Descending Seattle Center
03:01PM 46.9631 -114.2992 84° East 334 384 9,600 -2,100 Descending Seattle Center
03:02PM 47.0153 -114.2169 47° Northeast 298 343 7,800 -1,680 Descending Seattle Center
03:03PM 46.9850 -114.1947 153° Southeast 210 242 6,200 -1,740 Descending Seattle Center
03:05PM 46.9456 -114.1428 138° Southeast 135 155 4,000 -1,380 Descending Salt Lake Center
03:06PM 46.9222 -114.1033 131° Southeast 129 148 3,200 -780 Descending Salt Lake Center